createdAt,value
2023-02-23T00:00:45.805Z,5.93
2023-02-23T00:02:50.871Z,5.78
2023-02-23T00:04:52.956Z,6.90
2023-02-23T00:06:54.900Z,9.10
2023-02-23T00:09:01.400Z,10.90
2023-02-23T00:11:05.932Z,10.57
2023-02-23T00:13:07.876Z,7.43
2023-02-23T00:15:10.105Z,9.93
2023-02-23T00:17:15.289Z,12.38
2023-02-23T00:19:17.835Z,11.85
2023-02-23T00:25:31.351Z,5.45
2023-02-23T00:27:33.250Z,4.63
2023-02-23T00:29:39.953Z,5.06
2023-02-23T00:31:44.557Z,6.43
2023-02-23T00:37:53.378Z,4.60
2023-02-23T00:42:03.700Z,7.82
2023-02-23T00:52:17.128Z,8.05
2023-02-23T00:54:21.023Z,11.20
2023-02-23T00:56:23.370Z,9.43
2023-02-23T00:58:27.443Z,8.65
2023-02-23T03:18:01.978Z,6.85
2023-02-23T03:20:47.575Z,6.75
2023-02-23T04:26:17.948Z,10.43
2023-02-23T04:28:20.796Z,8.43
2023-02-23T04:30:28.805Z,8.30
2023-02-23T04:36:34.907Z,8.73
2023-02-23T04:38:36.817Z,10.25
2023-02-23T04:40:38.780Z,9.18
2023-02-23T04:42:40.951Z,9.13
2023-02-23T04:44:42.924Z,9.52
2023-02-23T04:46:44.958Z,8.45
2023-02-23T04:48:47.970Z,9.25
2023-02-23T05:01:10.049Z,8.02
2023-02-23T05:03:12.472Z,11.70
2023-02-23T05:05:15.513Z,9.25
2023-02-23T05:07:17.851Z,8.52
2023-02-23T05:09:19.830Z,8.00
2023-02-23T05:11:21.885Z,8.13
2023-02-23T05:13:23.857Z,8.32
2023-02-23T05:15:25.898Z,10.57
2023-02-23T05:17:27.997Z,9.02
2023-02-23T05:19:30.111Z,7.85
2023-02-23T05:21:33.218Z,9.07
2023-02-23T05:23:36.814Z,10.25
2023-02-23T05:25:39.896Z,8.88
2023-02-23T05:27:41.902Z,6.80
2023-02-23T05:29:44.692Z,8.95
2023-02-23T05:31:48.799Z,7.78
2023-02-23T05:33:52.944Z,10.30
2023-02-23T05:35:54.879Z,6.55
2023-02-23T05:37:56.893Z,7.00
2023-02-23T05:39:58.809Z,8.43
2023-02-23T05:42:00.728Z,8.70
2023-02-23T05:44:03.841Z,6.90
2023-02-23T05:46:13.294Z,7.18
2023-02-23T05:48:20.096Z,7.28
2023-02-23T05:50:23.015Z,7.07
2023-02-23T05:52:25.272Z,7.53
2023-02-23T05:54:27.521Z,7.55
2023-02-23T05:56:29.630Z,9.93
2023-02-23T05:58:35.247Z,6.60
2023-02-23T06:00:38.164Z,5.95
2023-02-23T06:02:42.015Z,7.00
2023-02-23T06:04:45.224Z,7.45
2023-02-23T06:06:47.238Z,6.95
2023-02-23T06:08:56.317Z,6.78
2023-02-23T06:10:58.289Z,10.50
2023-02-23T06:13:00.320Z,9.10
2023-02-23T06:15:02.366Z,13.27
2023-02-23T06:17:05.942Z,8.68
2023-02-23T06:19:08.244Z,6.80
2023-02-23T06:21:10.440Z,6.60
2023-02-23T06:23:12.575Z,8.23
2023-02-23T06:25:15.695Z,7.15
2023-02-23T06:27:18.838Z,6.68
2023-02-23T06:29:23.565Z,11.40
2023-02-23T06:31:25.621Z,10.63
2023-02-23T06:33:27.905Z,11.10
2023-02-23T06:35:36.093Z,7.60
2023-02-23T06:37:38.132Z,7.85
2023-02-23T06:39:41.201Z,9.93
2023-02-23T06:41:45.146Z,10.35
2023-02-23T06:43:52.214Z,9.10
2023-02-23T06:46:01.210Z,9.55
2023-02-23T06:48:03.280Z,8.00
2023-02-23T06:50:10.243Z,8.48
2023-02-23T06:52:14.194Z,7.82
2023-02-23T06:54:19.103Z,7.55
2023-02-23T06:56:26.235Z,8.43
2023-02-23T07:35:57.071Z,7.97
2023-02-23T07:38:00.119Z,9.82
2023-02-23T07:40:02.172Z,9.45
2023-02-23T07:54:43.140Z,7.35
2023-02-23T07:59:06.850Z,10.00
2023-02-23T08:01:16.997Z,10.65
2023-02-23T08:03:49.890Z,10.50
2023-02-23T08:05:52.009Z,10.60
2023-02-23T08:10:02.873Z,8.30
2023-02-23T08:12:05.756Z,9.10
2023-02-23T08:24:47.679Z,8.23
2023-02-23T08:26:50.678Z,8.07
2023-02-23T08:28:54.541Z,10.13
2023-02-23T08:30:59.647Z,10.10
2023-02-23T08:33:01.959Z,9.82
2023-02-23T08:35:04.153Z,8.93
2023-02-23T08:37:06.860Z,9.38
2023-02-23T08:39:10.274Z,8.60
2023-02-23T08:41:12.297Z,8.05
2023-02-23T08:43:16.309Z,8.02
2023-02-23T08:45:26.485Z,8.75
2023-02-23T08:47:33.459Z,10.65
2023-02-23T08:49:41.770Z,9.20
2023-02-23T08:51:50.727Z,8.98
2023-02-23T08:53:52.751Z,10.77
2023-02-23T08:56:04.014Z,9.38
2023-02-23T08:58:10.944Z,9.57
2023-02-23T09:00:17.093Z,10.15
2023-02-23T09:02:29.239Z,13.40
2023-02-23T09:04:37.989Z,10.90
2023-02-23T09:06:41.690Z,11.70
2023-02-23T09:08:46.492Z,7.43
2023-02-23T09:10:54.341Z,10.60
2023-02-23T09:12:56.289Z,9.38
2023-02-23T09:14:58.252Z,8.10
2023-02-23T09:17:00.249Z,11.73
2023-02-23T09:19:03.422Z,10.77
2023-02-23T09:21:08.815Z,8.65
2023-02-23T09:23:13.234Z,8.43
2023-02-23T09:25:23.166Z,8.95
2023-02-23T09:27:26.253Z,8.48
2023-02-23T09:42:20.434Z,8.95
2023-02-23T09:44:27.086Z,8.77
2023-02-23T09:47:07.354Z,9.85
2023-02-23T09:49:16.736Z,12.43
2023-02-23T09:51:22.940Z,8.85
2023-02-23T09:53:33.931Z,7.18
2023-02-23T09:55:40.038Z,10.40
2023-02-23T10:06:17.336Z,25.88
2023-02-23T10:17:57.476Z,12.57
2023-02-23T10:20:18.591Z,7.72
2023-02-23T10:22:21.960Z,19.33
2023-02-23T10:24:35.651Z,16.83
2023-02-23T10:26:44.485Z,20.98
2023-02-23T10:28:49.151Z,9.20
2023-02-23T11:23:54.963Z,9.63
2023-02-23T11:26:02.582Z,7.93
2023-02-23T11:28:05.039Z,8.85
2023-02-23T11:30:07.940Z,13.30
2023-02-23T11:57:32.305Z,12.65
2023-02-23T12:38:34.410Z,7.60
2023-02-23T12:40:39.221Z,11.20
2023-02-23T12:42:44.701Z,9.55
2023-02-23T12:44:54.801Z,13.40
2023-02-23T12:47:03.773Z,7.40
2023-02-23T12:51:31.225Z,11.75
2023-02-23T13:02:47.678Z,14.27
2023-02-23T13:21:25.110Z,9.48
2023-02-23T13:24:01.834Z,9.55
2023-02-23T13:26:44.602Z,10.75
2023-02-23T13:29:19.379Z,8.00
2023-02-23T13:31:28.604Z,9.48
2023-02-23T13:33:43.884Z,9.48
2023-02-23T13:35:46.398Z,6.93
2023-02-23T13:38:09.821Z,8.50
2023-02-23T13:40:27.009Z,9.02
2023-02-23T13:42:41.095Z,6.55
2023-02-23T13:44:55.946Z,7.68
2023-02-23T14:00:23.088Z,13.10
2023-02-23T14:54:46.067Z,8.90
2023-02-23T15:05:24.908Z,12.18
2023-02-23T15:30:57.455Z,16.15
2023-02-23T15:33:16.694Z,16.42
2023-02-23T15:37:34.277Z,11.32
2023-02-23T15:39:40.310Z,13.32
2023-02-23T15:41:48.654Z,14.82
2023-02-23T15:43:51.206Z,12.68
2023-02-23T15:45:57.786Z,14.50
2023-02-23T15:48:05.928Z,16.77
2023-02-23T15:50:34.926Z,11.88
2023-02-23T15:52:45.268Z,15.32
2023-02-23T15:55:00.503Z,12.05
2023-02-23T15:57:08.473Z,14.55
2023-02-23T15:59:16.683Z,11.77
2023-02-23T16:01:26.089Z,13.63
2023-02-23T16:33:20.139Z,17.88
2023-02-23T16:35:22.556Z,15.02
2023-02-23T17:13:17.331Z,17.65
2023-02-23T17:17:24.897Z,19.90
2023-02-23T17:19:27.584Z,18.52
2023-02-23T17:21:36.839Z,22.88
2023-02-23T17:23:51.268Z,27.42
2023-02-23T17:26:02.121Z,33.95
2023-02-23T17:28:08.077Z,41.07
2023-02-23T17:30:18.529Z,28.65
2023-02-23T17:34:28.372Z,26.55
2023-02-23T17:36:31.484Z,17.70
2023-02-23T17:38:37.476Z,19.95
2023-02-23T17:40:41.689Z,21.05
2023-02-23T17:42:44.933Z,20.98
2023-02-23T17:44:47.764Z,20.00
2023-02-23T17:53:01.577Z,23.80
2023-02-23T17:55:05.477Z,31.63
2023-02-23T17:57:08.407Z,25.92
2023-02-23T17:59:11.214Z,26.40
2023-02-23T18:01:14.181Z,26.55
2023-02-23T18:03:17.354Z,20.67
2023-02-23T18:05:20.524Z,24.73
2023-02-23T18:07:23.643Z,20.98
2023-02-23T18:09:28.119Z,24.42
2023-02-23T18:11:32.144Z,24.63
2023-02-23T18:13:35.117Z,25.00
2023-02-23T18:15:38.106Z,18.88
2023-02-23T18:17:41.031Z,22.98
2023-02-23T18:19:47.930Z,25.85
2023-02-23T18:21:51.085Z,27.30
2023-02-23T18:23:53.950Z,22.70
2023-02-23T18:26:05.699Z,21.65
2023-02-23T18:30:19.086Z,16.15
2023-02-23T18:32:23.127Z,19.05
2023-02-23T18:36:37.906Z,17.08
2023-02-23T18:42:45.746Z,19.67
2023-02-23T18:44:48.341Z,22.80
2023-02-23T18:46:51.581Z,18.75
2023-02-23T18:48:55.239Z,22.48
2023-02-23T18:50:59.423Z,18.67
2023-02-23T19:15:54.766Z,23.40
2023-02-23T19:17:59.825Z,28.65
2023-02-23T19:20:02.977Z,25.08
2023-02-23T19:22:07.311Z,23.55
2023-02-23T19:24:10.029Z,23.30
2023-02-23T19:26:13.537Z,21.42
2023-02-23T19:32:22.367Z,20.74
2023-02-23T19:40:43.310Z,19.70
2023-02-23T20:07:55.350Z,23.02
2023-02-23T20:08:11.983Z,25.25
2023-02-23T20:08:27.978Z,44.80
2023-02-23T20:12:31.647Z,3.70
2023-02-23T20:12:47.389Z,10.30
2023-02-23T20:13:02.923Z,40.00
2023-02-23T20:13:18.700Z,23.70
2023-02-23T20:13:33.886Z,16.35
2023-02-23T20:15:51.137Z,12.52
2023-02-23T20:17:55.299Z,11.30
2023-02-23T20:19:58.869Z,16.70
2023-02-23T20:22:02.351Z,16.65
2023-02-23T20:24:06.432Z,16.00
2023-02-23T20:26:13.974Z,13.55
2023-02-23T20:28:18.488Z,13.52
2023-02-23T20:30:22.754Z,14.88
2023-02-23T20:32:25.871Z,14.30
2023-02-23T20:34:31.565Z,18.45
2023-02-23T20:36:36.404Z,19.92
2023-02-23T20:38:39.840Z,13.00
2023-02-23T20:40:42.712Z,18.95
2023-02-23T20:42:48.631Z,17.13
2023-02-23T20:44:51.564Z,13.55
2023-02-23T20:46:54.715Z,20.45
2023-02-23T20:49:03.570Z,16.50
2023-02-23T20:51:09.290Z,14.25
2023-02-23T20:53:13.206Z,11.23
2023-02-23T20:55:29.264Z,13.07
2023-02-23T20:57:33.862Z,19.45
2023-02-23T20:59:37.211Z,20.98
2023-02-23T21:01:41.544Z,19.90
2023-02-23T21:03:44.488Z,17.95
2023-02-23T21:05:49.466Z,17.58
2023-02-23T21:07:53.633Z,13.10
2023-02-23T21:09:56.067Z,14.07
2023-02-23T21:11:58.762Z,18.90
2023-02-23T21:14:01.426Z,24.27
2023-02-23T21:16:04.313Z,24.77
2023-02-23T21:18:12.477Z,14.93
2023-02-23T21:20:15.908Z,18.17
2023-02-23T21:22:19.366Z,16.27
2023-02-23T21:24:26.368Z,19.85
2023-02-23T21:26:30.875Z,15.55
2023-02-23T21:28:33.886Z,18.02
2023-02-23T21:30:37.398Z,14.52
2023-02-23T21:32:42.690Z,17.60
2023-02-23T21:34:46.127Z,16.20
2023-02-23T21:36:50.517Z,17.48
2023-02-23T21:38:52.958Z,14.55
2023-02-23T21:40:55.287Z,15.55
2023-02-23T21:42:58.767Z,14.55
2023-02-23T21:45:01.601Z,13.50
2023-02-23T21:47:08.950Z,16.15
2023-02-23T21:49:11.490Z,13.65
2023-02-23T21:51:15.863Z,14.10
2023-02-23T21:53:18.680Z,14.43
2023-02-23T21:55:22.127Z,22.20
2023-02-23T21:57:28.556Z,14.93
2023-02-23T21:59:31.409Z,11.68
2023-02-23T22:01:35.669Z,16.83
2023-02-23T22:03:37.788Z,14.68
2023-02-23T22:05:40.444Z,19.08
2023-02-23T22:07:47.586Z,22.02
2023-02-23T22:09:55.625Z,33.13
2023-02-23T22:11:58.500Z,31.50
2023-02-23T22:14:00.774Z,35.13
2023-02-23T22:16:03.691Z,20.27
2023-02-23T22:18:07.346Z,22.33
2023-02-23T22:20:12.309Z,19.55
2023-02-23T22:22:14.283Z,14.57
2023-02-23T22:24:17.109Z,14.07
2023-02-23T22:26:19.146Z,15.23
2023-02-23T22:28:21.504Z,12.68
2023-02-23T22:30:23.590Z,13.30
2023-02-23T22:32:27.432Z,11.45
2023-02-23T22:34:29.519Z,16.88
2023-02-23T22:36:31.457Z,12.07
2023-02-23T22:38:34.825Z,13.25
2023-02-23T22:40:42.342Z,12.23
2023-02-23T22:42:48.682Z,14.48
2023-02-23T22:44:51.415Z,14.15
2023-02-23T22:46:53.542Z,13.65
2023-02-23T22:48:55.621Z,12.95
2023-02-23T22:50:58.262Z,13.77
2023-02-23T22:53:01.689Z,17.48
2023-02-23T22:55:04.176Z,10.77
2023-02-23T22:57:06.801Z,17.85
2023-02-23T22:59:11.199Z,17.52
2023-02-23T23:01:13.235Z,21.23
2023-02-23T23:03:16.154Z,16.75
2023-02-23T23:05:18.432Z,13.23
2023-02-23T23:07:20.889Z,16.55
2023-02-23T23:09:22.876Z,19.10
2023-02-23T23:11:27.243Z,17.75
2023-02-23T23:13:32.055Z,16.98
2023-02-23T23:15:34.074Z,18.98
2023-02-23T23:17:36.043Z,33.00
2023-02-23T23:19:41.353Z,34.65
2023-02-23T23:21:46.302Z,36.83
2023-02-23T23:23:50.605Z,32.25
2023-02-23T23:25:52.610Z,25.00
2023-02-23T23:27:55.881Z,20.23
2023-02-23T23:29:58.621Z,22.60
2023-02-23T23:32:02.651Z,27.85
2023-02-23T23:34:09.648Z,29.98
2023-02-23T23:36:12.579Z,30.67
2023-02-23T23:38:14.676Z,27.92
2023-02-23T23:40:16.792Z,26.45
2023-02-23T23:42:20.462Z,17.17
2023-02-23T23:44:29.631Z,24.00
2023-02-23T23:46:38.215Z,23.25
2023-02-23T23:48:40.113Z,17.65
2023-02-23T23:50:42.541Z,19.15
2023-02-23T23:52:45.957Z,18.83
2023-02-23T23:54:48.455Z,17.80
2023-02-23T23:56:50.883Z,15.02
2023-02-23T23:58:57.145Z,16.90
